createdAt,value
2023-01-03T00:00:31.121Z,2.63
2023-01-03T00:05:35.539Z,2.17
2023-01-03T00:10:38.594Z,2.10
2023-01-03T00:15:42.807Z,1.93
2023-01-03T00:20:45.692Z,3.73
2023-01-03T00:25:48.508Z,3.37
2023-01-03T00:30:52.771Z,1.60
2023-01-03T00:35:55.580Z,1.60
2023-01-03T00:41:05.431Z,3.70
2023-01-03T00:46:10.716Z,3.00
2023-01-03T00:51:16.110Z,4.50
2023-01-03T00:56:21.776Z,4.07
2023-01-03T01:01:28.117Z,1.33
2023-01-03T01:06:32.809Z,5.73
2023-01-03T01:11:35.920Z,4.17
2023-01-03T01:16:40.059Z,2.87
2023-01-03T01:21:44.296Z,1.87
2023-01-03T01:26:48.493Z,7.80
2023-01-03T01:31:52.674Z,1.47
2023-01-03T01:36:55.488Z,7.33
2023-01-03T01:42:20.475Z,3.13
2023-01-03T01:47:39.517Z,1.43
2023-01-03T01:52:46.088Z,3.70
2023-01-03T01:57:49.119Z,4.27
2023-01-03T02:02:54.209Z,3.10
2023-01-03T02:07:59.424Z,3.20
2023-01-03T02:13:08.408Z,1.97
2023-01-03T02:18:34.358Z,1.70
2023-01-03T02:24:25.032Z,5.57
2023-01-03T02:30:00.770Z,3.33
2023-01-03T02:35:06.742Z,4.00
2023-01-03T02:40:15.235Z,4.90
2023-01-03T02:45:20.981Z,2.83
2023-01-03T02:50:26.109Z,2.27
2023-01-03T02:55:31.748Z,3.03
2023-01-03T03:00:41.405Z,4.53
2023-01-03T03:05:48.887Z,5.83
2023-01-03T03:11:09.524Z,2.67
2023-01-03T03:16:18.480Z,3.97
2023-01-03T03:21:39.298Z,1.57
2023-01-03T03:26:44.081Z,3.30
2023-01-03T03:31:50.687Z,3.20
2023-01-03T03:36:56.497Z,3.37
2023-01-03T03:42:26.919Z,2.40
2023-01-03T03:47:38.504Z,3.80
2023-01-03T03:52:44.099Z,4.70
2023-01-03T03:57:48.823Z,4.23
2023-01-03T04:02:53.957Z,4.23
2023-01-03T04:07:56.995Z,2.10
2023-01-03T04:12:59.867Z,5.20
2023-01-03T04:18:04.211Z,3.37
2023-01-03T04:23:07.064Z,7.87
2023-01-03T04:28:10.114Z,4.50
2023-01-03T04:33:14.355Z,3.67
2023-01-03T04:38:18.539Z,4.93
2023-01-03T04:43:38.955Z,4.03
2023-01-03T04:48:43.271Z,5.27
2023-01-03T04:53:46.081Z,5.30
2023-01-03T04:58:48.975Z,4.63
2023-01-03T05:03:53.314Z,6.43
2023-01-03T05:08:56.344Z,5.37
2023-01-03T05:13:59.140Z,10.90
2023-01-03T05:19:03.328Z,7.67
2023-01-03T05:24:25.024Z,11.37
2023-01-03T05:29:29.187Z,13.10
2023-01-03T05:34:33.369Z,10.83
2023-01-03T05:39:36.729Z,11.47
2023-01-03T05:44:39.610Z,9.70
2023-01-03T05:49:43.811Z,19.63
2023-01-03T05:54:46.628Z,23.93
2023-01-03T05:59:49.475Z,23.50
2023-01-03T06:04:53.767Z,31.13
2023-01-03T06:09:56.629Z,30.77
2023-01-03T06:14:59.461Z,33.87
2023-01-03T06:20:04.113Z,31.83
2023-01-03T06:25:07.332Z,33.43
2023-01-03T06:30:11.778Z,45.37
2023-01-03T06:35:16.201Z,29.17
2023-01-03T06:40:19.460Z,31.10
2023-01-03T06:45:40.450Z,42.63
2023-01-03T06:51:02.654Z,32.90
2023-01-03T06:56:05.996Z,32.13
2023-01-03T07:01:09.039Z,22.60
2023-01-03T07:06:13.522Z,31.47
2023-01-03T07:11:16.399Z,29.37
2023-01-03T07:16:20.720Z,26.93
2023-01-03T07:21:25.450Z,28.53
2023-01-03T07:26:30.296Z,26.23
2023-01-03T07:31:33.709Z,30.20
2023-01-03T07:36:38.078Z,31.20
2023-01-03T07:42:12.906Z,28.23
2023-01-03T07:47:15.777Z,27.70
2023-01-03T07:52:20.035Z,25.10
2023-01-03T07:57:22.915Z,33.73
2023-01-03T08:02:25.864Z,25.73
2023-01-03T08:07:30.327Z,30.33
2023-01-03T08:12:50.533Z,29.30
2023-01-03T08:17:53.337Z,26.43
2023-01-03T08:23:00.418Z,25.13
2023-01-03T08:28:04.156Z,25.30
2023-01-03T08:33:09.250Z,24.07
2023-01-03T08:38:15.958Z,21.80
2023-01-03T08:43:19.334Z,22.73
2023-01-03T08:48:23.537Z,24.73
2023-01-03T08:53:28.872Z,24.80
2023-01-03T08:58:31.921Z,24.63
2023-01-03T09:03:37.706Z,21.33
2023-01-03T09:08:42.108Z,22.43
2023-01-03T09:13:48.588Z,23.70
2023-01-03T09:18:56.650Z,20.23
2023-01-03T09:24:00.986Z,19.37
2023-01-03T09:29:04.477Z,22.07
2023-01-03T09:34:07.367Z,22.90
2023-01-03T09:39:11.640Z,21.70
2023-01-03T09:44:14.438Z,20.73
2023-01-03T09:49:17.304Z,19.27
2023-01-03T09:54:45.211Z,28.00
2023-01-03T10:00:05.711Z,25.27
2023-01-03T10:05:36.838Z,22.90
2023-01-03T10:10:48.910Z,28.53
2023-01-03T10:15:58.459Z,30.53
2023-01-03T10:21:07.906Z,27.90
2023-01-03T10:26:13.378Z,33.60
2023-01-03T10:31:41.476Z,38.93
2023-01-03T10:36:44.350Z,31.80
2023-01-03T10:41:52.400Z,36.63
2023-01-03T10:46:57.416Z,39.60
2023-01-03T10:52:02.332Z,35.37
2023-01-03T10:57:08.087Z,32.37
2023-01-03T11:02:17.345Z,33.50
2023-01-03T11:07:20.335Z,34.73
2023-01-03T11:12:29.978Z,31.37
2023-01-03T11:17:32.926Z,38.53
2023-01-03T11:22:39.885Z,38.17
2023-01-03T11:28:09.070Z,29.00
2023-01-03T11:33:48.509Z,41.90
2023-01-03T11:38:59.078Z,28.80
2023-01-03T11:44:44.823Z,40.93
2023-01-03T11:50:04.226Z,37.10
2023-01-03T11:55:38.962Z,41.97
2023-01-03T12:00:47.929Z,41.43
2023-01-03T12:05:52.880Z,42.13
2023-01-03T12:11:05.020Z,31.97
2023-01-03T12:16:12.758Z,35.60
2023-01-03T12:21:19.656Z,35.47
2023-01-03T12:26:25.903Z,32.83
2023-01-03T12:31:32.992Z,36.77
2023-01-03T12:36:42.421Z,30.63
2023-01-03T12:41:48.491Z,27.20
2023-01-03T12:46:54.269Z,30.77
2023-01-03T12:51:57.214Z,28.00
2023-01-03T12:57:21.051Z,20.63
2023-01-03T13:02:31.994Z,34.60
2023-01-03T13:07:35.532Z,21.33
2023-01-03T13:12:40.737Z,24.53
2023-01-03T13:17:47.072Z,23.93
2023-01-03T13:22:52.578Z,19.47
2023-01-03T13:27:58.274Z,16.80
2023-01-03T13:33:18.722Z,16.23
2023-01-03T13:38:27.852Z,16.47
2023-01-03T13:43:39.287Z,14.33
2023-01-03T13:48:54.396Z,16.50
2023-01-03T13:54:00.550Z,22.33
2023-01-03T14:05:04.443Z,23.07
2023-01-03T14:10:22.772Z,11.80
2023-01-03T14:15:27.315Z,11.70
2023-01-03T14:20:39.641Z,11.43
2023-01-03T14:25:43.664Z,13.47
2023-01-03T14:30:47.181Z,11.30
2023-01-03T14:36:02.153Z,11.30
2023-01-03T14:41:05.182Z,11.57
2023-01-03T14:46:09.236Z,14.53
2023-01-03T14:51:14.330Z,15.67
2023-01-03T14:56:17.730Z,11.23
2023-01-03T15:01:21.572Z,10.50
2023-01-03T15:06:31.269Z,9.53
2023-01-03T15:11:55.834Z,9.37
2023-01-03T15:17:05.793Z,9.70
2023-01-03T15:22:15.395Z,8.77
2023-01-03T15:27:43.857Z,12.97
2023-01-03T15:32:49.441Z,9.30
2023-01-03T15:38:00.528Z,10.10
2023-01-03T15:43:23.710Z,22.17
2023-01-03T15:48:27.921Z,7.83
2023-01-03T15:53:39.194Z,9.80
2023-01-03T15:58:46.408Z,11.43
2023-01-03T16:03:49.876Z,11.17
2023-01-03T16:08:54.466Z,13.80
2023-01-03T16:14:02.194Z,7.73
2023-01-03T16:19:17.962Z,10.57
2023-01-03T16:24:22.398Z,11.13
2023-01-03T16:29:25.325Z,20.70
2023-01-03T16:34:33.588Z,10.00
2023-01-03T16:39:45.705Z,7.50
2023-01-03T16:44:50.829Z,34.33
2023-01-03T16:49:56.073Z,11.43
2023-01-03T16:55:02.114Z,10.23
2023-01-03T17:00:18.998Z,13.70
2023-01-03T17:05:22.069Z,10.50
2023-01-03T17:10:28.930Z,13.83
2023-01-03T17:15:32.876Z,10.23
2023-01-03T17:20:36.088Z,7.87
2023-01-03T17:25:41.330Z,9.10
2023-01-03T17:30:45.183Z,7.97
2023-01-03T17:35:48.156Z,7.53
2023-01-03T17:40:55.449Z,6.43
2023-01-03T17:46:23.132Z,7.83
2023-01-03T17:51:26.899Z,8.57
2023-01-03T17:56:32.494Z,8.90
2023-01-03T18:01:35.721Z,11.70
2023-01-03T18:06:41.616Z,7.33
2023-01-03T18:11:48.700Z,8.43
2023-01-03T18:16:55.029Z,10.17
2023-01-03T18:22:00.750Z,6.43
2023-01-03T18:27:09.388Z,15.60
2023-01-03T18:32:24.959Z,6.30
2023-01-03T18:37:32.119Z,8.57
2023-01-03T18:42:58.433Z,17.50
2023-01-03T18:48:01.695Z,9.73
2023-01-03T18:53:05.154Z,18.47
2023-01-03T18:58:17.964Z,20.17
2023-01-03T19:03:24.220Z,14.47
2023-01-03T19:08:28.833Z,9.37
2023-01-03T19:14:00.062Z,19.27
2023-01-03T19:19:03.523Z,12.27
2023-01-03T19:24:09.189Z,12.43
2023-01-03T19:29:37.685Z,12.27
2023-01-03T19:34:40.560Z,8.43
2023-01-03T19:39:43.497Z,8.33
2023-01-03T19:44:51.300Z,9.40
2023-01-03T19:49:54.868Z,8.50
2023-01-03T19:54:57.804Z,11.20
2023-01-03T20:00:05.793Z,9.17
2023-01-03T20:05:19.131Z,7.57
2023-01-03T20:10:24.114Z,8.97
2023-01-03T20:15:30.718Z,6.97
2023-01-03T20:20:34.294Z,7.17
2023-01-03T20:25:39.873Z,13.27
2023-01-03T20:30:44.177Z,6.40
2023-01-03T20:41:10.554Z,13.20
2023-01-03T20:46:19.822Z,5.80
2023-01-03T20:51:46.526Z,9.77
2023-01-03T20:56:49.343Z,3.87
2023-01-03T21:01:53.803Z,13.10
2023-01-03T21:06:58.081Z,4.03
2023-01-03T21:12:01.132Z,7.23
2023-01-03T21:17:06.577Z,19.37
2023-01-03T21:22:20.045Z,14.23
2023-01-03T21:27:22.954Z,5.37
2023-01-03T21:32:27.187Z,7.67
2023-01-03T21:37:30.110Z,6.30
2023-01-03T21:42:55.066Z,7.87
2023-01-03T21:48:04.220Z,6.63
2023-01-03T21:53:07.397Z,6.33
2023-01-03T21:58:11.600Z,12.17
2023-01-03T22:09:01.205Z,12.27
2023-01-03T22:14:04.057Z,9.23
2023-01-03T22:19:10.644Z,5.50
2023-01-03T22:24:13.998Z,6.53
2023-01-03T22:29:17.290Z,7.30
2023-01-03T22:34:21.584Z,7.57
2023-01-03T22:39:24.874Z,5.33
2023-01-03T22:44:29.899Z,8.60
2023-01-03T22:49:34.129Z,6.20
2023-01-03T22:54:37.132Z,6.67
2023-01-03T22:59:40.442Z,5.13
2023-01-03T23:04:47.612Z,7.27
2023-01-03T23:09:50.594Z,15.93
2023-01-03T23:14:53.441Z,9.07
2023-01-03T23:19:59.267Z,4.63
2023-01-03T23:25:04.932Z,4.13
2023-01-03T23:30:09.083Z,9.30
2023-01-03T23:35:13.372Z,8.70
2023-01-03T23:40:17.172Z,3.53
2023-01-03T23:45:20.025Z,7.33
2023-01-03T23:50:24.302Z,6.07
2023-01-03T23:55:27.158Z,6.73
